createdAt,value
2022-08-01T00:01:57.849Z,22.90
2022-08-01T00:04:25.385Z,22.90
2022-08-01T00:06:52.971Z,22.90
2022-08-01T00:09:24.169Z,22.80
2022-08-01T00:12:06.407Z,22.80
2022-08-01T00:14:34.220Z,22.90
2022-08-01T00:17:07.122Z,22.80
2022-08-01T00:19:35.352Z,22.80
2022-08-01T00:22:03.099Z,22.80
2022-08-01T00:24:32.516Z,22.90
2022-08-01T00:27:00.108Z,22.90
2022-08-01T00:30:10.063Z,22.90
2022-08-01T00:32:15.433Z,22.90
2022-08-01T00:34:42.814Z,22.90
2022-08-01T00:37:10.632Z,22.90
2022-08-01T00:39:43.757Z,22.90
2022-08-01T00:42:13.276Z,22.90
2022-08-01T00:44:41.857Z,22.90
2022-08-01T00:47:09.783Z,22.90
2022-08-01T00:49:37.203Z,22.90
2022-08-01T00:52:07.764Z,22.90
2022-08-01T00:54:36.615Z,22.90
2022-08-01T00:57:08.545Z,22.90
2022-08-01T00:59:39.963Z,22.90
2022-08-01T01:02:08.901Z,22.90
2022-08-01T01:04:44.652Z,22.90
2022-08-01T01:07:29.774Z,22.90
2022-08-01T01:10:08.197Z,22.90
2022-08-01T01:12:50.787Z,22.90
2022-08-01T01:15:44.017Z,22.80
2022-08-01T01:18:39.323Z,22.80
2022-08-01T01:21:17.794Z,22.80
2022-08-01T01:24:25.527Z,22.80
2022-08-01T01:27:07.645Z,22.80
2022-08-01T01:29:59.661Z,22.80
2022-08-01T01:32:46.767Z,22.80
2022-08-01T01:35:28.167Z,22.80
2022-08-01T01:38:25.337Z,22.80
2022-08-01T01:40:55.095Z,22.80
2022-08-01T01:43:28.882Z,22.80
2022-08-01T01:46:04.961Z,22.80
2022-08-01T01:48:34.951Z,22.80
2022-08-01T01:51:04.897Z,22.80
2022-08-01T01:53:36.661Z,22.80
2022-08-01T01:56:05.656Z,22.80
2022-08-01T01:58:36.058Z,22.80
2022-08-01T02:01:05.008Z,22.70
2022-08-01T02:03:44.665Z,22.70
2022-08-01T02:06:16.191Z,22.70
2022-08-01T02:08:46.815Z,22.70
2022-08-01T02:11:20.650Z,22.70
2022-08-01T02:14:02.914Z,22.70
2022-08-01T02:16:36.511Z,22.70
2022-08-01T02:19:05.339Z,22.70
2022-08-01T02:21:43.519Z,22.70
2022-08-01T02:24:30.797Z,22.70
2022-08-01T02:27:03.251Z,22.70
2022-08-01T02:29:44.382Z,22.70
2022-08-01T02:32:22.032Z,22.70
2022-08-01T02:34:53.440Z,22.70
2022-08-01T02:37:23.183Z,22.70
2022-08-01T02:39:55.566Z,22.70
2022-08-01T02:42:36.278Z,22.70
2022-08-01T02:45:09.673Z,22.70
2022-08-01T02:47:41.291Z,22.70
2022-08-01T02:50:13.645Z,22.70
2022-08-01T02:52:45.180Z,22.70
2022-08-01T02:55:14.915Z,22.70
2022-08-01T02:57:52.056Z,22.60
2022-08-01T03:00:23.648Z,22.60
2022-08-01T03:02:57.814Z,22.60
2022-08-01T03:05:28.410Z,22.60
2022-08-01T03:08:01.448Z,22.60
2022-08-01T03:10:33.647Z,22.60
2022-08-01T03:13:04.760Z,22.60
2022-08-01T03:15:37.099Z,22.50
2022-08-01T03:18:09.639Z,22.50
2022-08-01T03:20:37.995Z,22.50
2022-08-01T03:23:09.958Z,22.50
2022-08-01T03:25:42.456Z,22.50
2022-08-01T03:28:14.511Z,22.50
2022-08-01T03:30:44.501Z,22.50
2022-08-01T03:33:14.484Z,22.60
2022-08-01T03:35:51.417Z,22.50
2022-08-01T03:38:26.472Z,22.50
2022-08-01T03:41:09.637Z,22.60
2022-08-01T03:43:48.043Z,22.60
2022-08-01T03:46:27.573Z,22.60
2022-08-01T03:49:02.039Z,22.60
2022-08-01T03:51:33.098Z,22.60
2022-08-01T03:54:03.184Z,22.50
2022-08-01T03:56:33.369Z,22.60
2022-08-01T03:59:04.482Z,22.60
2022-08-01T04:01:35.169Z,22.60
2022-08-01T04:04:03.227Z,22.60
2022-08-01T04:06:31.147Z,22.60
2022-08-01T04:08:59.125Z,22.60
2022-08-01T04:11:28.884Z,22.60
2022-08-01T04:13:57.017Z,22.60
2022-08-01T04:16:25.089Z,22.60
2022-08-01T04:18:53.531Z,22.60
2022-08-01T04:21:30.183Z,22.60
2022-08-01T04:24:06.137Z,22.60
2022-08-01T04:26:37.692Z,22.60
2022-08-01T04:29:09.227Z,22.60
2022-08-01T04:31:38.420Z,22.60
2022-08-01T04:34:08.321Z,22.70
2022-08-01T04:36:38.445Z,22.70
2022-08-01T04:39:07.507Z,22.70
2022-08-01T04:41:37.326Z,22.70
2022-08-01T04:44:05.849Z,22.70
2022-08-01T04:46:35.400Z,22.70
2022-08-01T04:49:05.007Z,22.70
2022-08-01T04:51:33.082Z,22.70
2022-08-01T04:54:03.301Z,22.70
2022-08-01T04:56:31.706Z,22.70
2022-08-01T04:59:20.195Z,22.80
2022-08-01T05:01:52.113Z,22.80
2022-08-01T05:04:19.930Z,22.80
2022-08-01T05:06:47.147Z,22.80
2022-08-01T05:09:14.405Z,22.80
2022-08-01T05:11:41.968Z,22.80
2022-08-01T05:14:09.593Z,22.90
2022-08-01T05:16:37.662Z,22.90
2022-08-01T05:19:05.490Z,22.90
2022-08-01T05:21:33.426Z,22.90
2022-08-01T05:24:04.585Z,22.90
2022-08-01T05:26:33.408Z,22.90
2022-08-01T05:29:01.895Z,22.90
2022-08-01T05:31:31.534Z,22.90
2022-08-01T05:33:59.965Z,23.00
2022-08-01T05:36:27.799Z,23.00
2022-08-01T05:38:55.374Z,23.10
2022-08-01T05:41:23.046Z,23.10
2022-08-01T05:43:50.781Z,23.20
2022-08-01T05:46:18.317Z,23.20
2022-08-01T05:48:45.623Z,23.30
2022-08-01T05:51:14.212Z,23.40
2022-08-01T05:53:41.987Z,23.50
2022-08-01T05:56:09.695Z,23.50
2022-08-01T05:58:37.591Z,23.50
2022-08-01T06:01:05.650Z,23.60
2022-08-01T06:03:34.762Z,23.60
2022-08-01T06:06:02.870Z,23.60
2022-08-01T06:08:30.938Z,23.60
2022-08-01T06:10:58.604Z,23.70
2022-08-01T06:13:26.481Z,23.70
2022-08-01T06:15:54.340Z,23.70
2022-08-01T06:18:22.312Z,23.80
2022-08-01T06:20:53.342Z,23.80
2022-08-01T06:23:31.759Z,23.90
2022-08-01T06:25:59.921Z,23.90
2022-08-01T06:28:27.625Z,23.90
2022-08-01T06:30:55.213Z,24.00
2022-08-01T06:33:23.438Z,24.00
2022-08-01T06:35:51.897Z,24.10
2022-08-01T06:38:19.454Z,24.20
2022-08-01T06:40:47.135Z,24.20
2022-08-01T06:43:15.069Z,24.30
2022-08-01T06:45:43.267Z,24.30
2022-08-01T06:48:11.391Z,24.40
2022-08-01T06:50:39.520Z,24.50
2022-08-01T06:53:07.736Z,24.50
2022-08-01T06:55:35.825Z,24.60
2022-08-01T06:58:03.620Z,24.60
2022-08-01T07:00:32.421Z,24.70
2022-08-01T07:03:01.103Z,24.80
2022-08-01T07:05:32.397Z,24.80
2022-08-01T07:08:00.144Z,24.90
2022-08-01T07:10:28.050Z,25.00
2022-08-01T07:12:55.423Z,25.00
2022-08-01T07:15:27.778Z,25.00
2022-08-01T07:17:55.955Z,25.10
2022-08-01T07:20:25.980Z,25.20
2022-08-01T07:22:56.528Z,25.30
2022-08-01T07:25:24.748Z,25.40
2022-08-01T07:27:52.977Z,25.40
2022-08-01T07:30:20.386Z,25.50
2022-08-01T07:32:49.032Z,25.50
2022-08-01T07:35:17.196Z,25.50
2022-08-01T07:37:48.979Z,25.60
2022-08-01T07:40:21.591Z,25.70
2022-08-01T07:42:49.372Z,25.70
2022-08-01T07:45:17.752Z,25.80
2022-08-01T07:47:45.890Z,25.90
2022-08-01T07:50:14.453Z,25.90
2022-08-01T07:52:43.097Z,26.00
2022-08-01T07:55:16.439Z,26.00
2022-08-01T07:57:45.191Z,26.10
2022-08-01T08:00:14.295Z,26.10
2022-08-01T08:02:43.407Z,26.10
2022-08-01T08:05:10.960Z,26.10
2022-08-01T08:07:40.258Z,26.20
2022-08-01T08:10:11.461Z,26.30
2022-08-01T08:12:41.989Z,26.40
2022-08-01T08:15:11.754Z,26.60
2022-08-01T08:17:40.850Z,26.70
2022-08-01T08:20:10.590Z,26.90
2022-08-01T08:22:41.946Z,27.10
2022-08-01T08:25:11.929Z,27.20
2022-08-01T08:27:43.908Z,27.20
2022-08-01T08:30:13.271Z,27.10
2022-08-01T08:32:41.672Z,27.00
2022-08-01T08:35:16.180Z,26.90
2022-08-01T08:37:49.051Z,26.80
2022-08-01T08:40:18.719Z,26.70
2022-08-01T08:42:48.423Z,26.80
2022-08-01T08:45:17.327Z,26.90
2022-08-01T08:47:47.809Z,27.10
2022-08-01T08:50:15.842Z,27.20
2022-08-01T08:52:46.034Z,27.40
2022-08-01T08:55:18.315Z,27.60
2022-08-01T08:57:52.018Z,27.80
2022-08-01T09:00:20.045Z,27.90
2022-08-01T09:02:51.471Z,28.00
2022-08-01T09:05:26.722Z,28.10
2022-08-01T09:08:10.407Z,28.30
2022-08-01T09:10:42.506Z,28.60
2022-08-01T09:13:14.858Z,28.70
2022-08-01T09:15:49.972Z,28.90
2022-08-01T09:18:37.790Z,29.10
2022-08-01T09:21:18.783Z,29.30
2022-08-01T09:23:55.003Z,29.40
2022-08-01T09:26:38.432Z,29.50
2022-08-01T09:29:37.214Z,29.50
2022-08-01T09:32:16.378Z,29.70
2022-08-01T09:34:44.821Z,29.90
2022-08-01T09:37:18.784Z,30.10
2022-08-01T09:39:59.280Z,30.30
2022-08-01T09:42:32.635Z,30.50
2022-08-01T09:45:02.647Z,30.70
2022-08-01T09:47:48.876Z,30.80
2022-08-01T09:50:18.019Z,31.00
2022-08-01T09:52:57.681Z,31.20
2022-08-01T09:55:26.406Z,31.30
2022-08-01T09:58:02.568Z,31.50
2022-08-01T10:00:44.868Z,31.50
2022-08-01T10:03:27.289Z,31.70
2022-08-01T10:05:55.318Z,32.00
2022-08-01T10:08:24.567Z,32.20
2022-08-01T10:11:18.014Z,32.40
2022-08-01T10:13:46.095Z,32.50
2022-08-01T10:16:15.885Z,32.50
2022-08-01T10:18:47.485Z,32.50
2022-08-01T10:21:16.261Z,32.30
2022-08-01T10:24:10.314Z,32.00
2022-08-01T10:26:41.012Z,31.60
2022-08-01T10:29:24.328Z,31.40
2022-08-01T10:32:00.370Z,31.20
2022-08-01T10:34:34.709Z,31.00
2022-08-01T10:37:02.961Z,30.90
2022-08-01T10:39:35.926Z,30.90
2022-08-01T10:42:10.796Z,30.90
2022-08-01T10:44:42.802Z,31.00
2022-08-01T10:47:27.009Z,31.20
2022-08-01T10:50:21.740Z,31.50
2022-08-01T10:53:42.304Z,31.80
2022-08-01T10:56:16.733Z,32.10
2022-08-01T10:58:47.674Z,32.40
2022-08-01T11:05:36.325Z,33.10
2022-08-01T11:08:12.480Z,33.60
2022-08-01T11:10:44.994Z,33.70
2022-08-01T11:13:16.321Z,33.70
2022-08-01T11:15:50.328Z,33.60
2022-08-01T11:18:37.659Z,33.50
2022-08-01T11:21:58.127Z,33.20
2022-08-01T11:23:55.116Z,32.90
2022-08-01T11:26:29.116Z,32.60
2022-08-01T11:29:22.061Z,32.30
2022-08-01T11:32:13.321Z,31.90
2022-08-01T11:36:08.432Z,31.60
2022-08-01T11:38:42.352Z,31.20
2022-08-01T11:41:18.145Z,30.80
2022-08-01T11:44:15.096Z,30.50
2022-08-01T11:47:00.474Z,30.30
2022-08-01T11:49:38.989Z,30.10
2022-08-01T11:52:08.790Z,30.00
2022-08-01T11:54:58.667Z,29.90
2022-08-01T11:57:39.574Z,29.90
2022-08-01T12:00:17.596Z,29.90
2022-08-01T12:02:59.058Z,30.00
2022-08-01T12:05:32.467Z,30.20
2022-08-01T12:08:00.816Z,30.50
2022-08-01T12:10:49.393Z,30.60
2022-08-01T12:13:19.467Z,30.70
2022-08-01T12:15:50.553Z,30.70
2022-08-01T12:18:21.724Z,30.60
2022-08-01T12:20:56.624Z,30.40
2022-08-01T12:23:25.734Z,30.30
2022-08-01T12:25:57.363Z,30.10
2022-08-01T12:28:28.821Z,30.00
2022-08-01T12:30:57.459Z,30.00
2022-08-01T12:33:28.640Z,30.00
2022-08-01T12:35:56.614Z,30.00
2022-08-01T12:38:26.442Z,30.00
2022-08-01T12:40:54.936Z,29.80
2022-08-01T12:43:29.255Z,29.60
2022-08-01T12:46:01.584Z,29.30
2022-08-01T12:48:33.124Z,29.10
2022-08-01T12:51:03.605Z,28.80
2022-08-01T12:53:40.460Z,28.70
2022-08-01T12:56:13.101Z,28.60
2022-08-01T12:58:44.133Z,28.60
2022-08-01T13:01:14.993Z,28.60
2022-08-01T13:03:58.786Z,28.50
2022-08-01T13:06:31.746Z,28.50
2022-08-01T13:09:15.002Z,28.50
2022-08-01T13:12:04.281Z,28.50
2022-08-01T13:14:35.538Z,28.50
2022-08-01T13:17:14.790Z,28.50
2022-08-01T13:19:49.903Z,28.50
2022-08-01T13:22:17.774Z,28.40
2022-08-01T13:24:45.812Z,28.40
2022-08-01T13:27:26.964Z,28.50
2022-08-01T13:29:54.825Z,28.50
2022-08-01T13:32:28.537Z,28.60
2022-08-01T13:35:11.616Z,28.60
2022-08-01T13:37:44.003Z,28.70
2022-08-01T13:40:15.595Z,28.80
2022-08-01T13:42:46.468Z,28.80
2022-08-01T13:45:16.455Z,29.00
2022-08-01T13:48:11.875Z,29.00
2022-08-01T13:50:34.149Z,29.10
2022-08-01T13:53:02.915Z,29.10
2022-08-01T13:55:35.191Z,29.20
2022-08-01T13:58:06.627Z,29.30
2022-08-01T14:00:35.271Z,29.50
2022-08-01T14:03:03.800Z,29.70
2022-08-01T14:05:32.924Z,30.00
2022-08-01T14:08:00.862Z,30.20
2022-08-01T14:10:30.068Z,30.40
2022-08-01T14:12:59.714Z,30.60
2022-08-01T14:15:36.983Z,30.70
2022-08-01T14:18:09.400Z,30.70
2022-08-01T14:20:38.729Z,30.80
2022-08-01T14:23:08.661Z,30.80
2022-08-01T14:26:00.676Z,30.80
2022-08-01T14:28:32.208Z,30.70
2022-08-01T14:31:00.624Z,30.60
2022-08-01T14:33:34.287Z,30.40
2022-08-01T14:36:30.546Z,30.30
2022-08-01T14:38:54.209Z,30.10
2022-08-01T14:41:30.924Z,29.90
2022-08-01T14:44:00.863Z,29.80
2022-08-01T14:46:29.149Z,29.80
2022-08-01T14:48:59.833Z,29.80
2022-08-01T14:51:27.770Z,29.80
2022-08-01T14:54:05.668Z,29.70
2022-08-01T14:56:33.829Z,29.60
2022-08-01T14:59:21.110Z,29.50
2022-08-01T15:01:58.864Z,29.50
2022-08-01T15:04:45.875Z,29.50
2022-08-01T15:07:25.889Z,29.60
2022-08-01T15:10:00.526Z,29.70
2022-08-01T15:12:49.915Z,29.80
2022-08-01T15:15:18.518Z,29.70
2022-08-01T15:17:50.356Z,29.70
2022-08-01T15:20:21.958Z,29.70
2022-08-01T15:22:54.220Z,29.60
2022-08-01T15:25:25.788Z,29.60
2022-08-01T15:29:03.144Z,29.60
2022-08-01T15:31:47.304Z,29.60
2022-08-01T15:34:18.143Z,29.60
2022-08-01T15:37:24.530Z,29.60
2022-08-01T15:39:56.452Z,29.60
2022-08-01T15:42:26.735Z,29.60
2022-08-01T15:44:59.551Z,29.50
2022-08-01T15:47:26.827Z,29.30
2022-08-01T15:49:54.623Z,29.20
2022-08-01T15:52:36.685Z,29.10
2022-08-01T15:55:10.673Z,29.10
2022-08-01T15:57:45.226Z,29.30
2022-08-01T16:00:18.375Z,29.50
2022-08-01T16:03:23.191Z,29.60
2022-08-01T16:05:51.157Z,29.70
2022-08-01T16:08:29.827Z,30.00
2022-08-01T16:11:04.464Z,30.30
2022-08-01T16:13:35.085Z,30.50
2022-08-01T16:16:24.415Z,30.90
2022-08-01T16:18:59.223Z,31.20
2022-08-01T16:21:39.980Z,31.60
2022-08-01T16:24:21.345Z,31.90
2022-08-01T16:26:53.193Z,32.00
2022-08-01T16:29:37.691Z,31.90
2022-08-01T16:33:05.229Z,31.80
2022-08-01T16:35:52.707Z,31.50
2022-08-01T16:38:27.777Z,31.20
2022-08-01T16:41:19.966Z,30.90
2022-08-01T16:43:54.813Z,30.60
2022-08-01T16:46:32.269Z,30.40
2022-08-01T16:49:08.445Z,30.40
2022-08-01T16:51:48.180Z,30.60
2022-08-01T16:54:29.495Z,30.80
2022-08-01T16:57:08.240Z,31.20
2022-08-01T16:59:47.545Z,31.60
2022-08-01T17:02:19.799Z,31.90
2022-08-01T17:04:57.504Z,32.10
2022-08-01T17:08:00.784Z,32.10
2022-08-01T17:10:39.542Z,32.10
2022-08-01T17:13:10.135Z,32.10
2022-08-01T17:16:14.306Z,32.10
2022-08-01T17:19:32.625Z,32.20
2022-08-01T17:22:01.481Z,32.20
2022-08-01T17:24:37.935Z,32.20
2022-08-01T17:27:15.205Z,32.10
2022-08-01T17:29:51.164Z,32.10
2022-08-01T17:32:18.933Z,32.00
2022-08-01T17:34:52.921Z,32.10
2022-08-01T17:37:20.379Z,32.10
2022-08-01T17:39:55.989Z,32.10
2022-08-01T17:42:35.189Z,32.00
2022-08-01T17:45:50.420Z,31.90
2022-08-01T17:48:18.717Z,31.50
2022-08-01T17:50:50.724Z,31.00
2022-08-01T17:53:29.884Z,30.60
2022-08-01T17:56:07.639Z,30.20
2022-08-01T17:58:55.934Z,29.70
2022-08-01T18:01:36.665Z,29.30
2022-08-01T18:04:07.492Z,29.00
2022-08-01T18:06:58.746Z,28.60
2022-08-01T18:09:29.977Z,28.30
2022-08-01T18:12:03.684Z,28.10
2022-08-01T18:14:50.237Z,27.80
2022-08-01T18:17:20.996Z,27.60
2022-08-01T18:19:55.439Z,27.50
2022-08-01T18:22:32.863Z,27.30
2022-08-01T18:25:08.535Z,27.10
2022-08-01T18:28:23.388Z,27.00
2022-08-01T18:30:28.527Z,26.80
2022-08-01T18:33:24.896Z,26.70
2022-08-01T18:35:54.035Z,26.60
2022-08-01T18:38:27.556Z,26.50
2022-08-01T18:40:58.873Z,26.50
2022-08-01T18:43:29.939Z,26.40
2022-08-01T18:45:59.695Z,26.20
2022-08-01T18:48:40.824Z,26.10
2022-08-01T18:51:11.514Z,26.00
2022-08-01T18:53:47.388Z,25.90
2022-08-01T18:56:23.867Z,25.80
2022-08-01T18:59:05.434Z,25.70
2022-08-01T19:01:36.599Z,25.70
2022-08-01T19:04:08.435Z,25.50
2022-08-01T19:06:47.728Z,25.50
2022-08-01T19:09:20.395Z,25.40
2022-08-01T19:11:57.946Z,25.30
2022-08-01T19:14:36.221Z,25.20
2022-08-01T19:17:05.402Z,25.20
2022-08-01T19:19:39.383Z,25.10
2022-08-01T19:22:17.484Z,25.10
2022-08-01T19:25:24.581Z,25.00
2022-08-01T19:28:02.848Z,24.90
2022-08-01T19:30:40.506Z,24.80
2022-08-01T19:33:13.863Z,24.80
2022-08-01T19:35:42.275Z,24.70
2022-08-01T19:38:19.504Z,24.60
2022-08-01T19:40:51.043Z,24.60
2022-08-01T19:43:46.450Z,24.50
2022-08-01T19:46:22.757Z,24.40
2022-08-01T19:48:54.393Z,24.40
2022-08-01T19:51:33.098Z,24.30
2022-08-01T19:54:08.266Z,24.20
2022-08-01T19:56:46.417Z,24.20
2022-08-01T19:59:32.481Z,24.10
2022-08-01T20:02:05.726Z,24.00
2022-08-01T20:04:45.418Z,24.00
2022-08-01T20:07:21.819Z,23.90
2022-08-01T20:10:05.578Z,23.80
2022-08-01T20:12:45.123Z,23.70
2022-08-01T20:15:53.848Z,23.70
2022-08-01T20:19:23.596Z,23.60
2022-08-01T20:22:08.319Z,23.50
2022-08-01T20:24:53.342Z,23.50
2022-08-01T20:27:33.707Z,23.40
2022-08-01T20:30:16.761Z,23.30
2022-08-01T20:32:57.613Z,23.30
2022-08-01T20:35:51.837Z,23.20
2022-08-01T20:38:46.555Z,23.20
2022-08-01T20:41:50.699Z,23.10
2022-08-01T20:44:57.880Z,23.00
2022-08-01T20:47:26.327Z,23.00
2022-08-01T20:50:54.237Z,22.90
2022-08-01T20:53:21.033Z,22.90
2022-08-01T20:56:27.537Z,22.80
2022-08-01T20:59:54.907Z,22.70
2022-08-01T21:03:06.477Z,22.70
2022-08-01T21:05:58.703Z,22.60
2022-08-01T21:09:00.056Z,22.50
2022-08-01T21:11:46.520Z,22.50
2022-08-01T21:14:22.600Z,22.40
2022-08-01T21:17:09.319Z,22.30
2022-08-01T21:19:48.739Z,22.30
2022-08-01T21:22:27.087Z,22.20
2022-08-01T21:25:08.562Z,22.20
2022-08-01T21:27:40.019Z,22.10
2022-08-01T21:30:29.320Z,22.10
2022-08-01T21:32:57.910Z,22.00
2022-08-01T21:35:27.683Z,22.00
2022-08-01T21:37:59.686Z,21.90
2022-08-01T21:40:27.086Z,21.80
2022-08-01T21:42:55.554Z,21.80
2022-08-01T21:45:25.696Z,21.70
2022-08-01T21:47:54.518Z,21.70
2022-08-01T21:50:23.520Z,21.60
2022-08-01T21:53:13.514Z,21.60
2022-08-01T21:56:00.557Z,21.50
2022-08-01T21:59:01.046Z,21.50
2022-08-01T22:01:59.937Z,21.40
2022-08-01T22:04:48.047Z,21.40
2022-08-01T22:07:18.670Z,21.30
2022-08-01T22:09:50.177Z,21.30
2022-08-01T22:12:21.411Z,21.20
2022-08-01T22:14:52.755Z,21.10
2022-08-01T22:17:24.823Z,21.10
2022-08-01T22:19:55.225Z,21.00
2022-08-01T22:22:45.279Z,20.90
2022-08-01T22:25:13.462Z,20.90
2022-08-01T22:28:02.803Z,20.80
2022-08-01T22:30:29.806Z,20.80
2022-08-01T22:33:07.587Z,20.70
2022-08-01T22:35:48.920Z,20.60
2022-08-01T22:38:20.116Z,20.60
2022-08-01T22:41:05.362Z,20.50
2022-08-01T22:43:50.549Z,20.40
2022-08-01T22:47:08.030Z,20.40
2022-08-01T22:50:01.077Z,20.40
2022-08-01T22:52:31.097Z,20.30
2022-08-01T22:55:09.740Z,20.20
2022-08-01T22:57:59.136Z,20.10
2022-08-01T23:00:33.435Z,20.10
2022-08-01T23:03:19.244Z,20.00
2022-08-01T23:06:04.453Z,20.00
2022-08-01T23:08:32.835Z,19.90
2022-08-01T23:11:06.741Z,19.90
2022-08-01T23:13:34.914Z,19.80
2022-08-01T23:16:05.553Z,19.80
2022-08-01T23:18:33.240Z,19.70
2022-08-01T23:21:02.386Z,19.70
2022-08-01T23:23:31.953Z,19.70
2022-08-01T23:26:00.647Z,19.60
2022-08-01T23:28:29.590Z,19.60
2022-08-01T23:30:59.127Z,19.50
2022-08-01T23:33:26.437Z,19.50
2022-08-01T23:35:53.854Z,19.50
2022-08-01T23:38:21.523Z,19.40
2022-08-01T23:40:50.341Z,19.40
2022-08-01T23:43:18.089Z,19.40
2022-08-01T23:46:02.542Z,19.40
2022-08-01T23:48:35.886Z,19.40
2022-08-01T23:51:05.553Z,19.30
2022-08-01T23:53:38.672Z,19.30
2022-08-01T23:56:06.420Z,19.30
2022-08-01T23:58:33.811Z,19.30
